Time;durP1;ratioP1;P1;durP2;ratioP2;P2;SDS_P1;SDS_P2;PMS_P1;PMS_P2;Temp;Humidity;BMP_temperature;BMP_pressure;BME280_temperature;BME280_humidity;BME280_pressure;Samples;Min_cycle;Max_cycle;Signal;HPM_P1;HPM_P2
2021/09/02 00:00:15;;;;;;;0.10;0.10;;;13.30;99.90;;;;;;4976566;28;20767;-84
2021/09/02 00:02:40;;;;;;;0.83;0.50;;;13.40;99.90;;;;;;4971143;28;20223;-86
2021/09/02 00:05:07;;;;;;;0.40;0.40;;;13.50;99.90;;;;;;4977388;28;20184;-85
2021/09/02 00:07:32;;;;;;;0.77;0.50;;;13.50;99.90;;;;;;4972534;28;21910;-86
2021/09/02 00:09:58;;;;;;;0.60;0.60;;;13.50;99.90;;;;;;4977060;28;20180;-86
2021/09/02 00:12:24;;;;;;;1.80;0.53;;;13.40;99.90;;;;;;4971826;28;20195;-86
2021/09/02 00:14:50;;;;;;;0.33;0.33;;;13.40;99.90;;;;;;4994316;28;20208;-86
2021/09/02 00:17:16;;;;;;;0.30;0.30;;;13.40;99.90;;;;;;4962250;28;20228;-86
2021/09/02 00:19:41;;;;;;;0.30;0.30;;;13.40;99.90;;;;;;4975290;28;20190;-86
2021/09/02 00:22:07;;;;;;;0.63;0.63;;;13.30;99.90;;;;;;4973286;28;20255;-85
2021/09/02 00:24:32;;;;;;;0.33;0.30;;;13.20;99.90;;;;;;4976779;28;20187;-86
2021/09/02 00:26:58;;;;;;;0.60;0.60;;;13.00;99.90;;;;;;4967261;28;20207;-86
2021/09/02 00:29:23;;;;;;;0.30;0.30;;;12.90;99.90;;;;;;4975419;28;20191;-86
2021/09/02 00:31:49;;;;;;;0.67;0.67;;;12.80;99.90;;;;;;4991488;28;20183;-85
2021/09/02 00:34:14;;;;;;;0.80;0.47;;;12.90;99.90;;;;;;4976231;28;20190;-85
2021/09/02 00:36:40;;;;;;;0.63;0.20;;;12.80;99.90;;;;;;4974043;28;20245;-86
2021/09/02 00:39:06;;;;;;;0.30;0.30;;;12.90;99.90;;;;;;4976045;28;20232;-85
2021/09/02 00:41:31;;;;;;;0.20;0.20;;;12.80;99.90;;;;;;4975784;28;20189;-86
2021/09/02 00:43:57;;;;;;;0.17;0.17;;;12.80;99.90;;;;;;4991252;28;20682;-86
2021/09/02 00:46:22;;;;;;;0.77;0.77;;;12.80;99.90;;;;;;4974886;28;20190;-85
2021/09/02 00:48:50;;;;;;;0.83;0.60;;;12.80;99.90;;;;;;4976500;28;20241;-86
2021/09/02 00:51:18;;;;;;;0.50;0.50;;;12.80;99.90;;;;;;4975519;28;20979;-86
2021/09/02 00:53:46;;;;;;;1.03;0.30;;;12.70;99.90;;;;;;4990525;28;20605;-85
2021/09/02 00:56:14;;;;;;;0.40;0.40;;;12.80;99.90;;;;;;4967964;28;20195;-86
2021/09/02 00:58:41;;;;;;;0.13;0.13;;;12.70;99.90;;;;;;4970056;28;20234;-86
2021/09/02 01:01:07;;;;;;;0.47;0.37;;;12.70;99.90;;;;;;4969127;28;21174;-85
2021/09/02 01:03:35;;;;;;;0.53;0.43;;;12.70;99.90;;;;;;4984431;28;20188;-86
2021/09/02 01:06:00;;;;;;;0.10;0.10;;;12.80;99.90;;;;;;4974589;28;20188;-86
2021/09/02 01:08:27;;;;;;;0.13;0.13;;;12.90;99.90;;;;;;4975421;28;20229;-85
2021/09/02 01:10:52;;;;;;;0.83;0.40;;;12.90;99.90;;;;;;4972497;28;20180;-86
2021/09/02 01:13:19;;;;;;;0.20;0.20;;;13.00;99.90;;;;;;4969479;28;20184;-86
2021/09/02 01:15:45;;;;;;;0.53;0.50;;;13.00;99.90;;;;;;4973869;28;20609;-87
2021/09/02 01:18:11;;;;;;;0.43;0.43;;;13.00;99.90;;;;;;4988867;28;20218;-86
2021/09/02 01:20:37;;;;;;;0.87;0.50;;;13.00;99.90;;;;;;4983602;28;20183;-85
2021/09/02 01:23:04;;;;;;;0.10;0.10;;;13.00;99.90;;;;;;4993330;28;20198;-86
2021/09/02 01:25:36;;;;;;;0.20;0.20;;;13.10;99.90;;;;;;4984063;28;20184;-86
2021/09/02 01:28:05;;;;;;;0.87;0.40;;;13.10;99.90;;;;;;4965850;28;20203;-86
2021/09/02 01:30:32;;;;;;;0.40;0.30;;;13.10;99.90;;;;;;4980022;28;20247;-86
2021/09/02 01:32:58;;;;;;;0.27;0.27;;;13.00;99.90;;;;;;4973134;28;20180;-86
2021/09/02 01:35:24;;;;;;;0.73;0.73;;;12.80;99.90;;;;;;4990456;28;20270;-85
2021/09/02 01:37:52;;;;;;;0.93;0.47;;;12.70;99.90;;;;;;4968141;28;20222;-85
2021/09/02 01:40:21;;;;;;;0.37;0.27;;;12.60;99.90;;;;;;4969875;28;20231;-86
2021/09/02 01:42:47;;;;;;;0.47;0.47;;;12.60;99.90;;;;;;4993202;28;20309;-85
2021/09/02 01:45:13;;;;;;;0.53;0.50;;;12.60;99.90;;;;;;4975678;28;20223;-86
2021/09/02 01:47:40;;;;;;;0.47;0.47;;;12.60;99.90;;;;;;4992201;28;20302;-86
2021/09/02 01:50:09;;;;;;;0.20;0.20;;;12.50;99.90;;;;;;4975614;28;20199;-85
2021/09/02 01:52:36;;;;;;;0.37;0.37;;;12.50;99.90;;;;;;4967918;28;20604;-85
2021/09/02 01:55:02;;;;;;;1.37;0.87;;;12.40;99.90;;;;;;4975742;28;20250;-86
2021/09/02 01:57:28;;;;;;;0.30;0.30;;;12.50;99.90;;;;;;4971612;28;20236;-85
2021/09/02 01:59:54;;;;;;;2.10;0.30;;;12.50;99.90;;;;;;4981174;28;20223;-84
2021/09/02 02:02:19;;;;;;;0.20;0.20;;;12.50;99.90;;;;;;4989525;28;20898;-86
2021/09/02 02:04:45;;;;;;;0.40;0.40;;;12.40;99.90;;;;;;4975383;28;20558;-86
2021/09/02 02:07:10;;;;;;;0.40;0.40;;;12.40;99.90;;;;;;4991001;28;20213;-85
2021/09/02 02:09:36;;;;;;;1.10;1.10;;;12.30;99.90;;;;;;4974925;28;20214;-85
2021/09/02 02:12:01;;;;;;;0.20;0.20;;;12.20;99.90;;;;;;4970686;28;20322;-86
2021/09/02 02:14:27;;;;;;;0.20;0.20;;;12.20;99.90;;;;;;4975356;28;20237;-86
2021/09/02 02:16:53;;;;;;;0.20;0.20;;;12.30;99.90;;;;;;4991773;28;20219;-86
2021/09/02 02:19:19;;;;;;;0.53;0.50;;;12.20;99.90;;;;;;4975386;28;20211;-85
2021/09/02 02:21:51;;;;;;;1.17;0.57;;;12.30;99.90;;;;;;4970420;28;20271;-86
2021/09/02 02:24:16;;;;;;;0.23;0.23;;;12.30;99.90;;;;;;4993671;28;20213;-85
2021/09/02 02:26:42;;;;;;;0.20;0.20;;;12.40;99.90;;;;;;4976299;28;20545;-86
2021/09/02 02:29:07;;;;;;;0.37;0.30;;;12.30;99.90;;;;;;4975867;28;20190;-86
2021/09/02 02:31:33;;;;;;;0.47;0.23;;;12.30;99.90;;;;;;4996121;28;20192;-86
2021/09/02 02:33:59;;;;;;;0.10;0.10;;;12.30;99.90;;;;;;4978790;28;20194;-85
2021/09/02 02:36:24;;;;;;;0.30;0.30;;;12.40;99.90;;;;;;4975704;28;20791;-86
2021/09/02 02:38:50;;;;;;;0.67;0.67;;;12.30;99.90;;;;;;4988639;28;20202;-85
2021/09/02 02:41:16;;;;;;;0.30;0.30;;;12.40;99.90;;;;;;4977921;28;20194;-85
2021/09/02 02:43:41;;;;;;;0.20;0.20;;;12.30;99.90;;;;;;4972715;28;20183;-85
2021/09/02 02:46:07;;;;;;;0.20;0.20;;;12.40;99.90;;;;;;4977702;28;20225;-86
2021/09/02 02:48:32;;;;;;;0.47;0.33;;;12.40;99.90;;;;;;4978564;28;20210;-86
2021/09/02 02:50:58;;;;;;;0.50;0.50;;;12.30;99.90;;;;;;4978686;28;20650;-86
2021/09/02 02:53:24;;;;;;;1.17;0.60;;;12.30;99.90;;;;;;4967084;28;20189;-85
2021/09/02 02:55:49;;;;;;;0.37;0.37;;;12.30;99.90;;;;;;4994632;28;20188;-85
2021/09/02 02:58:15;;;;;;;0.30;0.30;;;12.20;99.90;;;;;;4978121;28;20253;-85
2021/09/02 03:00:40;;;;;;;2.93;0.30;;;12.20;99.90;;;;;;4992767;28;20194;-86
2021/09/02 03:03:06;;;;;;;0.40;0.30;;;12.20;99.90;;;;;;4966366;28;20667;-86
2021/09/02 03:05:32;;;;;;;1.07;0.43;;;12.30;99.90;;;;;;4978581;28;20239;-85
2021/09/02 03:07:58;;;;;;;1.90;0.50;;;12.30;99.90;;;;;;4972965;28;20222;-86
2021/09/02 03:10:23;;;;;;;0.10;0.10;;;12.30;99.90;;;;;;4974144;28;20219;-86
2021/09/02 03:12:49;;;;;;;0.40;0.37;;;12.30;99.90;;;;;;4983617;28;20749;-87
2021/09/02 03:15:15;;;;;;;0.60;0.60;;;12.30;99.90;;;;;;4970946;28;20191;-86
2021/09/02 03:17:40;;;;;;;1.23;1.20;;;12.40;99.90;;;;;;4989290;28;20592;-86
2021/09/02 03:20:07;;;;;;;0.50;0.40;;;12.30;99.90;;;;;;4995278;28;20315;-86
2021/09/02 03:22:33;;;;;;;0.50;0.33;;;12.20;99.90;;;;;;4986993;28;20198;-86
2021/09/02 03:24:59;;;;;;;0.60;0.60;;;12.20;99.90;;;;;;4994853;28;20674;-86
2021/09/02 03:27:25;;;;;;;0.27;0.27;;;12.30;99.90;;;;;;4993678;28;20229;-85
2021/09/02 03:29:51;;;;;;;0.33;0.33;;;12.30;99.90;;;;;;4976983;28;20727;-86
2021/09/02 03:32:16;;;;;;;0.20;0.20;;;12.30;99.90;;;;;;4977102;28;20202;-86
2021/09/02 03:34:42;;;;;;;0.30;0.23;;;12.20;99.90;;;;;;4974770;28;20211;-86
2021/09/02 03:37:07;;;;;;;0.43;0.23;;;12.20;99.90;;;;;;4973367;28;20216;-86
2021/09/02 03:39:33;;;;;;;0.10;0.10;;;12.10;99.90;;;;;;4966830;28;20208;-86
2021/09/02 03:41:59;;;;;;;0.50;0.50;;;12.10;99.90;;;;;;4977373;28;20186;-86
2021/09/02 03:44:24;;;;;;;0.17;0.17;;;12.20;99.90;;;;;;4977211;28;20646;-86
2021/09/02 03:46:50;;;;;;;0.57;0.57;;;12.10;99.90;;;;;;4993331;28;20273;-86
2021/09/02 03:49:16;;;;;;;0.40;0.30;;;12.30;99.90;;;;;;4974083;28;20242;-85
2021/09/02 03:51:41;;;;;;;1.30;0.73;;;12.20;99.90;;;;;;4973530;28;20184;-86
2021/09/02 03:54:07;;;;;;;0.20;0.20;;;12.10;99.90;;;;;;4961055;28;20238;-86
2021/09/02 03:56:32;;;;;;;0.40;0.40;;;12.10;99.90;;;;;;4971941;28;20309;-86
2021/09/02 03:58:58;;;;;;;0.40;0.40;;;12.00;99.90;;;;;;4973650;28;20290;-86
2021/09/02 04:01:25;;;;;;;0.20;0.20;;;12.00;99.90;;;;;;4970378;28;20267;-86
2021/09/02 04:03:51;;;;;;;0.33;0.33;;;12.10;99.90;;;;;;4967725;28;20180;-86
2021/09/02 04:06:17;;;;;;;0.63;0.27;;;12.00;99.90;;;;;;4971032;28;20204;-86
2021/09/02 04:08:42;;;;;;;0.40;0.40;;;12.10;99.90;;;;;;4992326;28;20176;-86
2021/09/02 04:11:08;;;;;;;0.40;0.40;;;12.10;99.90;;;;;;4961834;28;20184;-86
2021/09/02 04:13:38;;;;;;;0.30;0.30;;;12.10;99.90;;;;;;4966400;28;20218;-86
2021/09/02 04:16:04;;;;;;;0.10;0.10;;;12.20;99.90;;;;;;4975048;28;20186;-86
2021/09/02 04:18:29;;;;;;;0.70;0.70;;;12.20;99.90;;;;;;4975209;28;20222;-86
2021/09/02 04:20:55;;;;;;;0.77;0.53;;;12.00;99.90;;;;;;4976199;28;20186;-86
2021/09/02 04:23:21;;;;;;;0.27;0.27;;;12.00;99.90;;;;;;4991302;28;20232;-86
2021/09/02 04:25:46;;;;;;;0.40;0.40;;;12.00;99.90;;;;;;4976073;28;20214;-86
2021/09/02 04:28:12;;;;;;;0.20;0.20;;;12.00;99.90;;;;;;4992774;28;20208;-86
2021/09/02 04:30:38;;;;;;;0.43;0.30;;;12.00;99.90;;;;;;4976016;28;20215;-86
2021/09/02 04:33:03;;;;;;;0.20;0.20;;;12.10;99.90;;;;;;4975456;28;20211;-86
2021/09/02 04:35:29;;;;;;;0.57;0.57;;;12.10;99.90;;;;;;4992629;28;20192;-87
2021/09/02 04:37:55;;;;;;;0.33;0.23;;;12.20;99.90;;;;;;4974390;28;20218;-86
2021/09/02 04:40:20;;;;;;;0.13;0.13;;;12.20;99.90;;;;;;4993430;28;20206;-86
2021/09/02 04:42:46;;;;;;;0.33;0.33;;;12.30;99.90;;;;;;4974701;28;20197;-87
2021/09/02 04:45:12;;;;;;;0.33;0.33;;;12.10;99.90;;;;;;4969130;28;20718;-86
2021/09/02 04:47:38;;;;;;;0.20;0.20;;;12.20;99.90;;;;;;4987804;28;20196;-87
2021/09/02 04:50:06;;;;;;;0.57;0.20;;;12.20;99.90;;;;;;4975144;28;20190;-86
2021/09/02 04:52:32;;;;;;;0.40;0.40;;;12.20;99.90;;;;;;4984178;28;20183;-86
2021/09/02 04:54:58;;;;;;;0.10;0.10;;;12.30;99.90;;;;;;4973195;28;20652;-87
2021/09/02 04:57:24;;;;;;;0.20;0.20;;;12.10;99.90;;;;;;4968967;28;20219;-86
2021/09/02 04:59:49;;;;;;;0.43;0.43;;;12.10;99.90;;;;;;4966385;28;20646;-86
2021/09/02 05:02:15;;;;;;;0.10;0.10;;;12.10;99.90;;;;;;4974954;28;20195;-85
2021/09/02 05:04:41;;;;;;;0.30;0.30;;;12.20;99.90;;;;;;4975592;28;20201;-86
2021/09/02 05:07:07;;;;;;;0.40;0.40;;;12.20;99.90;;;;;;4971636;28;20582;-86
2021/09/02 05:09:32;;;;;;;0.10;0.10;;;12.20;99.90;;;;;;4964990;28;20216;-86
2021/09/02 05:11:58;;;;;;;0.27;0.27;;;12.30;99.90;;;;;;4995722;28;20430;-86
2021/09/02 05:14:24;;;;;;;0.73;0.70;;;12.30;99.90;;;;;;4975521;28;20188;-86
2021/09/02 05:16:49;;;;;;;0.30;0.30;;;12.20;99.90;;;;;;4990406;28;20225;-86
2021/09/02 05:19:15;;;;;;;0.33;0.30;;;12.40;99.90;;;;;;4968308;28;20286;-87
2021/09/02 05:21:40;;;;;;;0.33;0.33;;;12.50;99.90;;;;;;4973691;28;20191;-85
2021/09/02 05:24:06;;;;;;;0.43;0.20;;;12.60;99.90;;;;;;4963262;28;20224;-85
2021/09/02 05:26:32;;;;;;;0.23;0.23;;;12.70;99.90;;;;;;4991114;28;20282;-86
2021/09/02 05:28:57;;;;;;;0.50;0.33;;;12.80;99.90;;;;;;4975503;28;20188;-86
2021/09/02 05:31:23;;;;;;;0.37;0.30;;;12.70;99.90;;;;;;4981583;28;20258;-87
2021/09/02 05:33:49;;;;;;;0.37;0.37;;;12.80;99.90;;;;;;4969572;28;20191;-86
2021/09/02 05:36:14;;;;;;;0.20;0.20;;;12.90;99.90;;;;;;4984501;28;20215;-86
2021/09/02 05:38:40;;;;;;;0.97;0.57;;;13.10;99.90;;;;;;4992450;28;20204;-86
2021/09/02 05:41:06;;;;;;;0.17;0.17;;;13.30;99.90;;;;;;4972978;28;20187;-86
2021/09/02 05:43:32;;;;;;;0.20;0.20;;;13.30;99.90;;;;;;4971453;28;20180;-86
2021/09/02 05:45:57;;;;;;;0.40;0.40;;;13.50;99.90;;;;;;4974669;28;20184;-85
2021/09/02 05:48:23;;;;;;;1.43;0.37;;;13.60;99.90;;;;;;4975363;28;20203;-86
2021/09/02 05:50:50;;;;;;;0.40;0.40;;;13.80;99.90;;;;;;4975058;28;20717;-86
2021/09/02 05:53:16;;;;;;;0.20;0.20;;;14.00;99.90;;;;;;4985220;28;20234;-86
2021/09/02 05:55:42;;;;;;;1.13;0.77;;;14.20;99.90;;;;;;4973901;28;20195;-87
2021/09/02 05:58:07;;;;;;;0.73;0.67;;;14.30;99.90;;;;;;4992396;28;20226;-86
2021/09/02 06:00:33;;;;;;;0.43;0.43;;;14.40;99.90;;;;;;4975655;28;20407;-86
2021/09/02 06:02:58;;;;;;;0.63;0.50;;;14.50;99.90;;;;;;4978747;28;20282;-86
2021/09/02 06:05:24;;;;;;;2.70;1.03;;;14.70;99.90;;;;;;4977867;28;20234;-86
2021/09/02 06:07:49;;;;;;;0.23;0.23;;;14.70;99.90;;;;;;4980531;28;20217;-86
2021/09/02 06:10:20;;;;;;;0.40;0.40;;;14.70;99.90;;;;;;4978814;28;20240;-86
2021/09/02 06:12:46;;;;;;;0.77;0.77;;;14.80;99.90;;;;;;4979147;28;20191;-86
2021/09/02 06:15:12;;;;;;;0.73;0.60;;;14.80;99.90;;;;;;4978526;28;20242;-86
2021/09/02 06:17:38;;;;;;;0.50;0.50;;;14.90;99.90;;;;;;4994014;28;20227;-86
2021/09/02 06:20:05;;;;;;;0.50;0.50;;;14.90;99.90;;;;;;4976496;28;20277;-85
2021/09/02 06:22:31;;;;;;;0.87;0.87;;;15.00;99.90;;;;;;4977933;28;20561;-85
2021/09/02 06:24:58;;;;;;;0.63;0.40;;;15.10;99.90;;;;;;4987801;28;20255;-85
2021/09/02 06:27:23;;;;;;;3.10;0.53;;;15.20;99.90;;;;;;4976046;28;20218;-85
2021/09/02 06:29:49;;;;;;;2.77;0.60;;;15.20;99.90;;;;;;4978298;28;20201;-85
2021/09/02 06:32:14;;;;;;;1.17;0.80;;;15.40;99.90;;;;;;4976631;28;20216;-86
2021/09/02 06:34:40;;;;;;;0.50;0.27;;;15.60;99.90;;;;;;4974855;28;20198;-85
2021/09/02 06:37:05;;;;;;;2.30;2.10;;;15.80;99.90;;;;;;4992361;28;20229;-85
2021/09/02 06:39:31;;;;;;;0.40;0.27;;;15.90;99.90;;;;;;4981968;28;20202;-84
2021/09/02 06:41:57;;;;;;;0.40;0.30;;;16.10;99.90;;;;;;4993886;28;20942;-85
2021/09/02 06:44:24;;;;;;;0.47;0.47;;;16.30;99.90;;;;;;4977450;28;20272;-85
2021/09/02 06:46:52;;;;;;;0.70;0.70;;;16.50;99.90;;;;;;4977438;28;20237;-87
2021/09/02 06:49:19;;;;;;;0.77;0.70;;;16.60;99.90;;;;;;4977743;28;20194;-87
2021/09/02 06:51:45;;;;;;;0.20;0.20;;;16.80;99.90;;;;;;4977948;28;20191;-86
2021/09/02 06:54:10;;;;;;;0.60;0.50;;;16.90;99.90;;;;;;4978014;28;20195;-87
2021/09/02 06:56:36;;;;;;;0.50;0.50;;;17.10;99.90;;;;;;4976499;28;20277;-87
2021/09/02 06:59:01;;;;;;;0.83;0.50;;;17.30;99.90;;;;;;4995615;28;20194;-86
2021/09/02 07:01:27;;;;;;;0.60;0.43;;;17.40;99.90;;;;;;4973811;28;20655;-87
2021/09/02 07:03:53;;;;;;;0.20;0.20;;;17.60;99.90;;;;;;4964163;28;20188;-87
2021/09/02 07:06:18;;;;;;;0.60;0.60;;;17.70;99.90;;;;;;4976150;28;20275;-86
2021/09/02 07:08:44;;;;;;;0.67;0.67;;;17.90;99.90;;;;;;4993191;28;20241;-87
2021/09/02 07:11:09;;;;;;;0.57;0.57;;;18.00;99.90;;;;;;4989875;28;20270;-86
2021/09/02 07:13:35;;;;;;;2.27;0.93;;;18.20;99.90;;;;;;4993998;28;20538;-86
2021/09/02 07:16:01;;;;;;;0.53;0.53;;;18.20;99.90;;;;;;4977365;28;20718;-87
2021/09/02 07:18:27;;;;;;;1.30;1.20;;;18.40;99.90;;;;;;4977607;28;20226;-86
2021/09/02 07:20:52;;;;;;;1.20;0.70;;;18.40;99.90;;;;;;4995182;28;20189;-86
2021/09/02 07:23:21;;;;;;;1.30;0.57;;;18.50;99.90;;;;;;4994455;28;20250;-86
2021/09/02 07:25:47;;;;;;;0.80;0.80;;;18.70;99.90;;;;;;4976934;28;20652;-88
2021/09/02 07:28:12;;;;;;;3.00;2.70;;;19.00;99.90;;;;;;4994346;28;20223;-86
2021/09/02 07:30:40;;;;;;;0.70;0.70;;;18.30;99.90;;;;;;4985843;28;20188;-87
2021/09/02 07:33:05;;;;;;;0.93;0.60;;;18.40;99.90;;;;;;4977356;28;20199;-87
2021/09/02 07:35:31;;;;;;;0.60;0.60;;;18.80;99.90;;;;;;4991478;28;20195;-86
2021/09/02 07:37:58;;;;;;;0.30;0.30;;;19.10;99.90;;;;;;4996351;28;20204;-86
2021/09/02 07:40:23;;;;;;;0.83;0.60;;;19.30;99.90;;;;;;4997067;28;20200;-87
2021/09/02 07:42:49;;;;;;;1.03;0.73;;;19.10;99.90;;;;;;4994887;28;20592;-87
2021/09/02 07:45:14;;;;;;;0.40;0.40;;;19.10;99.90;;;;;;4974486;28;20723;-86
2021/09/02 07:47:44;;;;;;;0.63;0.50;;;19.00;99.90;;;;;;4975872;28;20211;-87
2021/09/02 07:50:11;;;;;;;0.77;0.70;;;19.30;99.90;;;;;;4994646;28;20180;-86
2021/09/02 07:52:38;;;;;;;0.87;0.77;;;19.40;99.90;;;;;;4975471;28;20235;-86
2021/09/02 07:55:06;;;;;;;2.30;0.87;;;19.20;99.90;;;;;;4968522;28;20223;-87
2021/09/02 07:57:32;;;;;;;0.67;0.67;;;18.90;99.90;;;;;;4973981;28;20216;-87
2021/09/02 07:59:57;;;;;;;0.60;0.60;;;19.20;99.90;;;;;;4962570;28;20231;-86
2021/09/02 08:02:23;;;;;;;1.10;0.80;;;19.30;99.90;;;;;;4972346;28;20340;-87
2021/09/02 08:04:48;;;;;;;1.30;1.20;;;19.00;99.90;;;;;;4966362;28;20560;-87
2021/09/02 08:07:14;;;;;;;0.50;0.50;;;19.30;99.90;;;;;;4970651;28;20820;-87
2021/09/02 08:09:39;;;;;;;0.87;0.87;;;19.50;99.90;;;;;;4975790;28;20618;-88
2021/09/02 08:12:05;;;;;;;0.90;0.90;;;19.90;99.90;;;;;;4973431;28;20188;-86
2021/09/02 08:14:31;;;;;;;0.63;0.63;;;20.10;99.90;;;;;;4975734;28;20198;-86
2021/09/02 08:16:56;;;;;;;0.90;0.90;;;19.90;99.90;;;;;;4974860;28;20215;-86
2021/09/02 08:19:22;;;;;;;1.63;0.60;;;19.90;99.90;;;;;;4969732;28;20727;-87
2021/09/02 08:21:48;;;;;;;0.73;0.73;;;19.80;99.90;;;;;;4983476;28;20180;-85
2021/09/02 08:24:15;;;;;;;1.00;1.00;;;19.90;99.90;;;;;;4963267;28;20615;-85
2021/09/02 08:26:42;;;;;;;1.57;0.73;;;19.70;99.90;;;;;;4987682;28;20200;-85
2021/09/02 08:29:10;;;;;;;0.43;0.43;;;20.00;99.90;;;;;;4960050;28;21645;-86
2021/09/02 08:31:36;;;;;;;1.23;0.80;;;20.40;99.90;;;;;;4968791;28;20190;-85
2021/09/02 08:34:01;;;;;;;1.63;1.53;;;20.10;99.90;;;;;;4992723;28;20240;-85
2021/09/02 08:36:27;;;;;;;2.57;1.07;;;20.40;99.90;;;;;;4974609;28;20694;-86
2021/09/02 08:38:53;;;;;;;1.17;1.07;;;20.30;99.90;;;;;;4967944;28;20214;-86
2021/09/02 08:41:19;;;;;;;0.50;0.50;;;20.10;99.90;;;;;;4970190;28;20195;-86
2021/09/02 08:43:46;;;;;;;0.93;0.70;;;19.90;99.90;;;;;;4992943;28;20207;-86
2021/09/02 08:46:13;;;;;;;2.23;1.13;;;20.00;99.90;;;;;;4993603;28;20204;-86
2021/09/02 08:48:46;;;;;;;0.80;0.80;;;19.80;99.90;;;;;;4966130;28;20272;-86
2021/09/02 08:51:13;;;;;;;1.00;0.93;;;19.90;99.90;;;;;;4967004;28;20187;-85
2021/09/02 08:53:38;;;;;;;1.20;1.20;;;20.00;99.90;;;;;;4965646;28;20218;-86
2021/09/02 08:56:04;;;;;;;1.13;0.73;;;20.10;99.90;;;;;;4948279;28;20200;-87
2021/09/02 08:58:32;;;;;;;1.23;1.13;;;20.40;99.90;;;;;;4959339;28;20219;-86
2021/09/02 09:00:58;;;;;;;1.30;1.20;;;20.70;99.90;;;;;;4970039;28;20184;-86
2021/09/02 09:03:25;;;;;;;0.93;0.77;;;21.00;99.90;;;;;;4980806;28;20175;-86
2021/09/02 09:05:56;;;;;;;1.60;1.03;;;21.30;99.90;;;;;;4992894;28;20230;-88
2021/09/02 09:08:31;;;;;;;1.87;1.73;;;20.80;99.90;;;;;;4975770;28;20207;-86
2021/09/02 09:11:13;;;;;;;1.07;0.60;;;20.70;99.90;;;;;;4987572;28;20179;-86
2021/09/02 09:13:39;;;;;;;0.90;0.70;;;20.80;99.90;;;;;;4993271;28;20172;-86
2021/09/02 09:16:04;;;;;;;1.20;0.83;;;20.90;99.90;;;;;;4970516;28;20198;-86
2021/09/02 09:18:39;;;;;;;0.83;0.80;;;21.30;99.90;;;;;;4974353;28;20207;-85
2021/09/02 09:21:18;;;;;;;0.40;0.40;;;20.80;99.90;;;;;;4969929;28;20211;-85
2021/09/02 09:24:05;;;;;;;1.10;1.00;;;21.20;99.90;;;;;;4990440;28;20183;-85
2021/09/02 09:26:33;;;;;;;1.10;1.00;;;21.20;99.90;;;;;;4968307;28;20184;-85
2021/09/02 09:29:01;;;;;;;0.50;0.50;;;21.20;99.90;;;;;;4969544;28;20647;-85
2021/09/02 09:31:34;;;;;;;1.07;0.67;;;21.50;99.90;;;;;;4972231;28;20239;-85
2021/09/02 09:34:03;;;;;;;1.00;1.00;;;21.80;99.90;;;;;;4987517;28;20215;-83
2021/09/02 09:36:31;;;;;;;1.57;1.03;;;21.20;99.90;;;;;;4993171;28;20180;-85
2021/09/02 09:38:58;;;;;;;2.77;1.17;;;21.20;99.90;;;;;;4957487;28;20199;-85
2021/09/02 09:41:37;;;;;;;0.67;0.67;;;21.40;99.90;;;;;;4969883;28;20211;-86
2021/09/02 09:44:26;;;;;;;1.13;0.97;;;21.40;99.90;;;;;;4972179;28;20250;-85
2021/09/02 09:47:11;;;;;;;1.67;1.00;;;21.40;99.90;;;;;;4989495;28;20219;-86
2021/09/02 09:49:46;;;;;;;1.07;0.63;;;21.50;99.90;;;;;;4991061;28;20190;-86
2021/09/02 09:52:23;;;;;;;0.73;0.73;;;22.10;99.90;;;;;;4988455;28;20191;-86
2021/09/02 09:54:49;;;;;;;2.00;1.40;;;21.90;99.90;;;;;;4974137;28;20187;-85
2021/09/02 09:57:15;;;;;;;2.27;0.70;;;21.90;99.90;;;;;;4986329;28;20216;-86
2021/09/02 09:59:42;;;;;;;1.00;1.00;;;22.10;99.90;;;;;;4971485;28;20710;-86
2021/09/02 10:02:08;;;;;;;2.10;1.03;;;22.20;99.90;;;;;;4989666;28;20222;-83
2021/09/02 10:04:35;;;;;;;2.10;1.10;;;21.80;99.90;;;;;;4975615;28;20201;-84
2021/09/02 10:07:04;;;;;;;0.90;0.90;;;21.70;99.90;;;;;;4963730;28;20274;-84
2021/09/02 10:09:31;;;;;;;0.73;0.73;;;22.20;99.90;;;;;;4971278;28;20239;-84
2021/09/02 10:11:59;;;;;;;0.90;0.90;;;22.30;99.90;;;;;;4990158;28;20250;-84
2021/09/02 10:14:25;;;;;;;0.67;0.60;;;22.40;99.90;;;;;;4988419;28;20191;-84
2021/09/02 10:16:50;;;;;;;1.10;1.10;;;22.50;99.90;;;;;;4980407;28;20271;-83
2021/09/02 10:19:16;;;;;;;2.50;1.47;;;22.00;99.90;;;;;;4973869;28;20196;-84
2021/09/02 10:21:42;;;;;;;1.07;0.90;;;22.20;99.90;;;;;;4990802;28;20263;-84
2021/09/02 10:24:40;;;;;;;1.40;1.30;;;22.60;99.90;;;;;;4972440;28;20188;-83
2021/09/02 10:27:21;;;;;;;0.90;0.90;;;22.60;99.90;;;;;;4970095;28;20220;-83
2021/09/02 10:29:46;;;;;;;2.27;1.93;;;22.30;99.90;;;;;;4976205;28;20287;-84
2021/09/02 10:32:27;;;;;;;3.97;1.17;;;22.10;99.90;;;;;;4974407;28;20279;-84
2021/09/02 10:34:55;;;;;;;0.87;0.87;;;22.00;99.90;;;;;;4989839;28;20203;-84
2021/09/02 10:37:43;;;;;;;0.67;0.67;;;22.00;99.90;;;;;;4989685;28;20211;-85
2021/09/02 10:40:15;;;;;;;1.07;0.93;;;22.60;99.90;;;;;;4964756;28;20239;-85
2021/09/02 10:42:45;;;;;;;0.73;0.53;;;23.00;99.90;;;;;;4973364;28;20183;-86
2021/09/02 10:45:29;;;;;;;1.43;0.80;;;22.80;99.90;;;;;;4977345;28;20188;-86
2021/09/02 10:48:00;;;;;;;0.63;0.63;;;23.10;99.90;;;;;;4970364;28;20556;-86
2021/09/02 10:50:29;;;;;;;0.60;0.57;;;23.00;99.90;;;;;;4977102;28;20196;-87
2021/09/02 10:53:16;;;;;;;1.27;1.20;;;23.00;99.90;;;;;;4987016;28;20185;-86
2021/09/02 10:55:57;;;;;;;2.00;1.00;;;23.10;99.90;;;;;;4977509;28;20207;-86
2021/09/02 10:58:40;;;;;;;1.97;0.90;;;23.10;99.90;;;;;;4995544;28;20210;-86
2021/09/02 11:01:25;;;;;;;0.77;0.77;;;22.90;99.90;;;;;;4995442;28;20467;-87
2021/09/02 11:03:51;;;;;;;2.20;0.83;;;23.00;99.90;;;;;;4980218;28;20175;-87
2021/09/02 11:06:17;;;;;;;0.83;0.53;;;23.60;99.90;;;;;;4997833;28;20195;-87
2021/09/02 11:08:43;;;;;;;0.50;0.50;;;22.90;99.90;;;;;;4976041;28;20191;-88
2021/09/02 11:11:12;;;;;;;0.63;0.63;;;22.30;99.90;;;;;;4965101;28;20197;-88
2021/09/02 11:13:42;;;;;;;1.10;1.00;;;22.80;99.90;;;;;;4993162;28;20256;-87
2021/09/02 11:16:29;;;;;;;2.13;1.03;;;23.10;99.90;;;;;;4976049;28;20210;-87
2021/09/02 11:18:56;;;;;;;0.53;0.53;;;23.20;99.90;;;;;;4972722;28;20195;-86
2021/09/02 11:21:24;;;;;;;0.70;0.70;;;22.80;99.90;;;;;;4976233;28;20196;-87
2021/09/02 11:24:09;;;;;;;1.20;0.73;;;22.90;99.90;;;;;;4976070;28;20192;-88
2021/09/02 11:26:39;;;;;;;0.77;0.77;;;23.50;99.90;;;;;;4992609;28;20254;-87
2021/09/02 11:29:06;;;;;;;0.80;0.80;;;23.90;99.90;;;;;;4977648;28;20192;-88
2021/09/02 11:31:32;;;;;;;0.50;0.50;;;24.10;99.90;;;;;;4969238;28;20187;-88
2021/09/02 11:33:59;;;;;;;1.20;0.70;;;23.70;99.90;;;;;;4967393;28;20203;-87
2021/09/02 11:36:26;;;;;;;0.97;0.93;;;23.90;99.90;;;;;;4993749;28;20687;-88
2021/09/02 11:39:01;;;;;;;0.73;0.63;;;23.90;99.90;;;;;;4969403;28;20749;-87
2021/09/02 11:41:28;;;;;;;0.50;0.50;;;24.40;99.90;;;;;;4987378;28;20183;-87
2021/09/02 11:43:54;;;;;;;6.13;0.83;;;23.70;99.90;;;;;;4975429;28;20218;-88
2021/09/02 11:46:21;;;;;;;0.80;0.70;;;23.60;99.90;;;;;;4976675;28;20184;-87
2021/09/02 11:48:55;;;;;;;1.20;1.10;;;23.80;99.90;;;;;;4977390;28;20843;-87
2021/09/02 11:51:23;;;;;;;0.70;0.70;;;23.50;99.90;;;;;;4990957;28;20179;-87
2021/09/02 11:54:01;;;;;;;1.87;1.13;;;22.60;99.90;;;;;;4973878;28;20583;-88
2021/09/02 11:56:28;;;;;;;0.73;0.70;;;22.60;99.90;;;;;;4974940;28;20274;-87
2021/09/02 11:59:01;;;;;;;0.93;0.90;;;22.30;99.90;;;;;;4988497;28;20202;-87
2021/09/02 12:01:27;;;;;;;0.93;0.93;;;22.50;99.90;;;;;;4993576;28;20236;-86
2021/09/02 12:03:54;;;;;;;0.97;0.80;;;22.30;99.90;;;;;;4970267;28;20181;-87
2021/09/02 12:06:28;;;;;;;3.13;1.43;;;22.40;99.90;;;;;;4973126;28;20182;-86
2021/09/02 12:08:57;;;;;;;1.17;1.07;;;22.40;99.90;;;;;;4975600;28;20190;-87
2021/09/02 12:11:23;;;;;;;0.87;0.87;;;22.50;99.90;;;;;;4992546;28;20188;-87
2021/09/02 12:13:48;;;;;;;1.50;1.27;;;22.30;99.90;;;;;;4992770;28;20187;-87
2021/09/02 12:16:16;;;;;;;2.77;1.20;;;22.30;99.90;;;;;;4975423;28;20183;-87
2021/09/02 12:18:44;;;;;;;1.60;0.97;;;22.40;99.90;;;;;;4972895;28;20310;-84
2021/09/02 12:21:31;;;;;;;1.47;1.30;;;22.50;99.90;;;;;;4993056;28;20262;-85
2021/09/02 12:24:05;;;;;;;1.20;1.07;;;22.50;99.90;;;;;;4962469;28;20191;-85
2021/09/02 12:26:54;;;;;;;2.20;0.70;;;22.90;99.90;;;;;;4993141;28;20183;-85
2021/09/02 12:29:23;;;;;;;0.90;0.90;;;23.50;99.90;;;;;;4974116;28;20192;-84
2021/09/02 12:31:51;;;;;;;1.03;0.77;;;23.80;99.90;;;;;;4975172;28;20190;-85
2021/09/02 12:34:26;;;;;;;2.90;1.87;;;24.20;99.90;;;;;;4992386;28;20231;-85
2021/09/02 12:37:05;;;;;;;1.10;1.03;;;23.80;99.90;;;;;;4971029;28;20361;-85
2021/09/02 12:39:33;;;;;;;1.93;1.33;;;23.50;99.90;;;;;;4991125;28;20187;-85
2021/09/02 12:42:04;;;;;;;2.10;1.27;;;22.90;99.90;;;;;;4969292;28;20188;-85
2021/09/02 12:44:32;;;;;;;1.13;1.10;;;23.20;99.90;;;;;;4974270;28;20267;-85
2021/09/02 12:47:04;;;;;;;1.87;1.47;;;23.70;99.90;;;;;;4969763;28;20307;-85
2021/09/02 12:49:42;;;;;;;1.20;1.13;;;23.60;99.90;;;;;;4973526;28;20733;-85